KDHT

Dalhart Municipal Airport

Dalhart, Texas, USA
KDHT 212346Z 2200/2224 21016KT P6SM SCT300 FM220600 26017KT P6SM SCT300 FM221100 34023G33KT P6SM SCT030 BKN100 FM221400 36032G45KT P6SM BKN035 OVC100
Issued Valid From Valid To
Jan-21 @ 23:46 UTC
(24 minutes ago)
Jan-22 @ 00:00 UTC
(10 minutes ago)
Jan-23 @ 00:00 UTC
(in 24 hours)
Jan-22 @ 00:00 to Jan-22 @ 06:00
KDHT 212346Z 2200/2224 21016KT P6SM SCT300
Wind Visibility Clouds
210° at 16 knots Greater than 6 miles
  • Scattered at 30,000' AGL
From Jan-22 @ 06:00 to Jan-22 @ 11:00
FM220600 26017KT P6SM SCT300
Wind Visibility Clouds
260° at 17 knots Greater than 6 miles
  • Scattered at 30,000' AGL
From Jan-22 @ 11:00 to Jan-22 @ 14:00
FM221100 34023G33KT P6SM SCT030 BKN100
Wind Visibility Clouds
340° at 23 knots
 Gusting to 33 knots
Greater than 6 miles
  • Scattered at 3,000' AGL
  • Broken at 10,000' AGL
From Jan-22 @ 14:00 to Jan-23 @ 00:00
FM221400 36032G45KT P6SM BKN035 OVC100
Wind Visibility Clouds
360° at 32 knots
 Gusting to 45 knots
Greater than 6 miles
  • Broken at 3,500' AGL
  • Overcast at 10,000' AGL
KDHT 212346Z 2200/2224 21016KT P6SM SCT300 FM220600 26017KT P6SM SCT300 FM221100 34023G33KT P6SM SCT030 BKN100 FM221400 36032G45KT P6SM BKN035 OVC100
Issued Jan-21 @ 23:46 UTC
(24 minutes ago)
Valid From Jan-22 @ 00:00 UTC
(10 minutes ago)
Valid To Jan-23 @ 00:00 UTC
(in 24 hours)
Jan-22 @ 00:00 - Jan-22 @ 06:00
Wind Visibility
210° at 16 knots Greater than 6 miles
Clouds
  • Scattered at 30,000' AGL
From Jan-22 @ 06:00 - Jan-22 @ 11:00
Wind Visibility
260° at 17 knots Greater than 6 miles
Clouds
  • Scattered at 30,000' AGL
From Jan-22 @ 11:00 - Jan-22 @ 14:00
Wind Visibility
340° at 23 knots
 Gusting to 33 knots
Greater than 6 miles
Clouds
  • Scattered at 3,000' AGL
  • Broken at 10,000' AGL
From Jan-22 @ 14:00 - Jan-23 @ 00:00
Wind Visibility
360° at 32 knots
 Gusting to 45 knots
Greater than 6 miles
Clouds
  • Broken at 3,500' AGL
  • Overcast at 10,000' AGL